Time;durP1;ratioP1;P1;durP2;ratioP2;P2;SDS_P1;SDS_P2;PMS_P1;PMS_P2;Temp;Humidity;BMP_temperature;BMP_pressure;BME280_temperature;BME280_humidity;BME280_pressure;Samples;Min_cycle;Max_cycle;Signal;HPM_P1;HPM_P2
2023/07/03 00:00:35;;;;;;;15.07;8.05;;;20.70;99.90;;;;;;7384914;19;21010;-75
2023/07/03 00:03:02;;;;;;;11.57;7.43;;;20.70;99.90;;;;;;7384543;19;20486;-76
2023/07/03 00:05:29;;;;;;;12.90;7.40;;;20.60;99.90;;;;;;7385050;19;20888;-75
2023/07/03 00:07:55;;;;;;;12.77;6.78;;;20.60;99.90;;;;;;7386971;19;20570;-76
2023/07/03 00:10:21;;;;;;;16.60;8.35;;;20.50;99.90;;;;;;7385923;19;20131;-76
2023/07/03 00:12:47;;;;;;;13.10;7.65;;;20.40;99.90;;;;;;7381811;19;20142;-76
2023/07/03 00:15:13;;;;;;;13.18;8.02;;;20.40;99.90;;;;;;7386482;19;20143;-76
2023/07/03 00:17:40;;;;;;;12.70;7.10;;;20.20;99.90;;;;;;7392050;19;20169;-75
2023/07/03 00:20:07;;;;;;;14.55;7.55;;;20.20;99.90;;;;;;7391790;19;20144;-76
2023/07/03 00:22:33;;;;;;;15.93;8.52;;;20.30;99.90;;;;;;7391714;19;20165;-76
2023/07/03 00:24:58;;;;;;;13.73;7.82;;;20.30;99.90;;;;;;7390819;19;20141;-76
2023/07/03 00:27:24;;;;;;;13.15;6.85;;;20.40;99.90;;;;;;7390949;19;20253;-76
2023/07/03 00:29:50;;;;;;;15.45;7.68;;;20.30;99.90;;;;;;7390331;19;20638;-76
2023/07/03 00:32:16;;;;;;;12.68;7.93;;;20.40;99.90;;;;;;7389548;19;20705;-74
2023/07/03 00:34:41;;;;;;;15.35;8.07;;;20.50;99.90;;;;;;7389642;19;20133;-76
2023/07/03 00:37:08;;;;;;;15.02;8.32;;;20.50;99.90;;;;;;7390146;19;20206;-74
2023/07/03 00:39:34;;;;;;;13.35;7.50;;;20.40;99.90;;;;;;7391403;19;20143;-75
2023/07/03 00:41:59;;;;;;;15.25;8.35;;;20.50;99.90;;;;;;7391008;19;20134;-76
2023/07/03 00:44:25;;;;;;;14.10;8.20;;;20.50;99.90;;;;;;7388952;19;20538;-76
2023/07/03 00:46:51;;;;;;;13.70;7.80;;;20.40;99.90;;;;;;7388945;19;20656;-75
2023/07/03 00:49:19;;;;;;;15.27;7.72;;;20.50;99.90;;;;;;7389707;19;20550;-75
2023/07/03 00:51:50;;;;;;;11.93;6.90;;;20.40;99.90;;;;;;7391100;19;20161;-75
2023/07/03 00:54:16;;;;;;;16.90;7.18;;;20.50;99.90;;;;;;7388668;19;20202;-75
2023/07/03 00:56:41;;;;;;;13.90;7.63;;;20.40;99.90;;;;;;7391279;19;20151;-75
2023/07/03 00:59:07;;;;;;;12.98;6.97;;;20.40;99.90;;;;;;7388846;19;20138;-75
2023/07/03 01:01:39;;;;;;;12.98;7.50;;;20.40;99.90;;;;;;7389945;19;20142;-75
2023/07/03 01:04:10;;;;;;;12.73;7.57;;;20.40;99.90;;;;;;7389849;19;20157;-75
2023/07/03 01:06:42;;;;;;;15.18;8.43;;;20.50;99.90;;;;;;7390607;19;20146;-76
2023/07/03 01:09:11;;;;;;;17.27;7.18;;;20.40;99.90;;;;;;7390133;19;20501;-76
2023/07/03 01:11:37;;;;;;;10.88;7.28;;;20.50;99.90;;;;;;7387427;19;20153;-75
2023/07/03 01:14:06;;;;;;;15.02;7.88;;;20.50;99.90;;;;;;7390753;19;20143;-75
2023/07/03 01:16:33;;;;;;;15.63;7.70;;;20.50;99.90;;;;;;7387466;19;20135;-75
2023/07/03 01:19:00;;;;;;;12.65;6.75;;;20.40;99.90;;;;;;7383601;19;20149;-76
2023/07/03 01:21:39;;;;;;;13.88;7.45;;;20.40;99.90;;;;;;7387649;19;20130;-76
2023/07/03 01:24:32;;;;;;;12.43;7.00;;;20.50;99.90;;;;;;7388492;19;20157;-75
2023/07/03 01:27:02;;;;;;;13.35;6.55;;;20.50;99.90;;;;;;7385530;19;20147;-76
2023/07/03 01:29:29;;;;;;;18.23;7.57;;;20.50;99.90;;;;;;7389419;19;20147;-76
2023/07/03 01:31:56;;;;;;;12.23;6.80;;;20.50;99.90;;;;;;7388782;19;20131;-76
2023/07/03 01:34:24;;;;;;;13.50;7.20;;;20.50;99.90;;;;;;7390630;19;20141;-75
2023/07/03 01:36:50;;;;;;;16.38;7.60;;;20.50;99.90;;;;;;7389979;19;20154;-76
2023/07/03 01:39:17;;;;;;;14.38;6.72;;;20.50;99.90;;;;;;7388099;19;20480;-76
2023/07/03 01:41:43;;;;;;;15.48;7.00;;;20.50;99.90;;;;;;7389910;19;20147;-75
2023/07/03 01:44:08;;;;;;;12.35;7.07;;;20.60;99.90;;;;;;7387542;19;20158;-75
2023/07/03 01:46:34;;;;;;;17.48;7.45;;;20.50;99.90;;;;;;7386781;19;20151;-75
2023/07/03 01:49:00;;;;;;;10.82;6.25;;;20.60;99.90;;;;;;7388066;19;20134;-75
2023/07/03 01:51:39;;;;;;;13.82;6.85;;;20.60;99.90;;;;;;7390192;19;20223;-75
2023/07/03 01:54:12;;;;;;;14.43;7.32;;;20.60;99.90;;;;;;7388266;19;20199;-75
2023/07/03 01:56:41;;;;;;;14.70;8.25;;;20.70;99.90;;;;;;7389035;19;20457;-75
2023/07/03 01:59:11;;;;;;;14.50;7.25;;;20.60;99.90;;;;;;7388120;19;20503;-76
2023/07/03 02:01:48;;;;;;;13.82;7.65;;;20.60;99.90;;;;;;7388639;19;20166;-75
2023/07/03 02:04:31;;;;;;;13.30;7.03;;;20.60;99.90;;;;;;7388470;19;20133;-74
2023/07/03 02:06:59;;;;;;;12.70;6.82;;;20.60;99.90;;;;;;7390795;19;20119;-75
2023/07/03 02:09:26;;;;;;;13.98;7.18;;;20.60;99.90;;;;;;7382412;19;20165;-76
2023/07/03 02:11:53;;;;;;;16.65;7.55;;;20.60;99.90;;;;;;7390619;19;20592;-76
2023/07/03 02:14:19;;;;;;;12.27;6.72;;;20.60;99.90;;;;;;7387834;19;20159;-76
2023/07/03 02:16:47;;;;;;;13.32;6.70;;;20.60;99.90;;;;;;7385424;19;20146;-76
2023/07/03 02:19:15;;;;;;;16.13;7.88;;;20.50;99.90;;;;;;7388338;19;20135;-76
2023/07/03 02:21:44;;;;;;;11.57;6.47;;;20.60;99.90;;;;;;7388885;19;20146;-76
2023/07/03 02:24:11;;;;;;;13.95;6.93;;;20.60;99.90;;;;;;7388853;19;20133;-76
2023/07/03 02:26:37;;;;;;;12.65;7.38;;;20.60;99.90;;;;;;7386923;19;20134;-75
2023/07/03 02:29:03;;;;;;;13.50;6.45;;;20.60;99.90;;;;;;7388027;19;20150;-75
2023/07/03 02:31:29;;;;;;;14.60;6.90;;;20.60;99.90;;;;;;7388656;19;20134;-76
2023/07/03 02:33:54;;;;;;;12.80;7.05;;;20.60;99.90;;;;;;7387338;19;20194;-76
2023/07/03 02:36:20;;;;;;;11.77;6.90;;;20.60;99.90;;;;;;7387695;19;20254;-76
2023/07/03 02:38:46;;;;;;;13.02;6.70;;;20.50;99.90;;;;;;7387183;19;20131;-76
2023/07/03 02:41:12;;;;;;;14.48;7.35;;;20.60;99.90;;;;;;7386316;19;20142;-74
2023/07/03 02:43:37;;;;;;;12.75;6.70;;;20.60;99.90;;;;;;7386776;19;20127;-75
2023/07/03 02:46:04;;;;;;;12.45;6.97;;;20.60;99.90;;;;;;7385682;19;20237;-76
2023/07/03 02:48:30;;;;;;;14.50;7.10;;;20.60;99.90;;;;;;7386799;19;20137;-76
2023/07/03 02:50:56;;;;;;;15.45;7.38;;;20.50;99.90;;;;;;7388508;19;20142;-76
2023/07/03 02:53:22;;;;;;;16.13;7.38;;;20.50;99.90;;;;;;7385741;19;20150;-76
2023/07/03 02:55:49;;;;;;;14.40;6.90;;;20.50;99.90;;;;;;7387676;19;20595;-76
2023/07/03 02:58:15;;;;;;;14.98;7.68;;;20.60;99.90;;;;;;7388335;19;20130;-76
2023/07/03 03:00:41;;;;;;;12.38;7.28;;;20.70;99.90;;;;;;7383590;19;20867;-76
2023/07/03 03:03:07;;;;;;;17.63;7.22;;;20.60;99.90;;;;;;7385666;19;20209;-76
2023/07/03 03:05:33;;;;;;;15.07;7.38;;;20.60;99.90;;;;;;7388059;19;20145;-75
2023/07/03 03:07:59;;;;;;;11.65;6.75;;;20.60;99.90;;;;;;7388445;19;20582;-75
2023/07/03 03:10:24;;;;;;;16.80;7.40;;;20.60;99.90;;;;;;7386966;19;20137;-76
2023/07/03 03:12:50;;;;;;;11.82;6.55;;;20.60;99.90;;;;;;7387010;19;20131;-75
2023/07/03 03:15:18;;;;;;;12.32;7.28;;;20.60;99.90;;;;;;7386794;19;20147;-75
2023/07/03 03:17:44;;;;;;;11.35;6.43;;;20.60;99.90;;;;;;7386933;19;20131;-76
2023/07/03 03:20:13;;;;;;;13.70;6.32;;;20.70;99.90;;;;;;7386900;19;20138;-75
2023/07/03 03:22:42;;;;;;;16.52;7.38;;;20.60;99.90;;;;;;7386788;19;20218;-75
2023/07/03 03:25:08;;;;;;;13.23;6.82;;;20.60;99.90;;;;;;7385153;19;20162;-75
2023/07/03 03:27:34;;;;;;;12.68;7.05;;;20.60;99.90;;;;;;7385639;19;20150;-74
2023/07/03 03:30:00;;;;;;;10.60;6.55;;;20.60;99.90;;;;;;7386029;19;20163;-75
2023/07/03 03:32:26;;;;;;;13.52;6.95;;;20.60;99.90;;;;;;7383623;19;20458;-75
2023/07/03 03:34:52;;;;;;;13.45;7.07;;;20.60;99.90;;;;;;7389206;19;20470;-76
2023/07/03 03:37:18;;;;;;;13.32;6.82;;;20.60;99.90;;;;;;7384653;19;20130;-76
2023/07/03 03:39:44;;;;;;;14.18;6.95;;;20.50;99.90;;;;;;7388367;19;20138;-76
2023/07/03 03:42:09;;;;;;;18.05;7.55;;;20.50;99.90;;;;;;7381305;19;20430;-75
2023/07/03 03:44:37;;;;;;;11.98;6.93;;;20.50;99.90;;;;;;7386663;19;20606;-76
2023/07/03 03:47:03;;;;;;;12.35;7.20;;;20.50;99.90;;;;;;7383156;19;20151;-77
2023/07/03 03:49:29;;;;;;;13.48;7.50;;;20.60;99.90;;;;;;7386336;19;20139;-76
2023/07/03 03:51:55;;;;;;;11.43;6.82;;;20.60;99.90;;;;;;7388423;19;20146;-76
2023/07/03 03:54:20;;;;;;;13.63;7.05;;;20.70;99.90;;;;;;7392756;19;20138;-75
2023/07/03 03:56:46;;;;;;;12.93;7.50;;;20.70;99.90;;;;;;7390778;19;20138;-77
2023/07/03 03:59:13;;;;;;;13.15;6.95;;;20.70;99.90;;;;;;7393423;19;20205;-77
2023/07/03 04:01:39;;;;;;;14.38;6.60;;;20.50;99.90;;;;;;7390452;19;20142;-77
2023/07/03 04:04:05;;;;;;;13.05;7.18;;;20.60;99.90;;;;;;7391989;19;20148;-77
2023/07/03 04:06:31;;;;;;;13.65;7.15;;;20.70;99.90;;;;;;7390156;19;20145;-77
2023/07/03 04:08:58;;;;;;;12.30;6.40;;;20.80;99.90;;;;;;7392564;19;20272;-76
2023/07/03 04:11:30;;;;;;;10.43;6.20;;;20.70;99.90;;;;;;7391744;19;20480;-77
2023/07/03 04:13:56;;;;;;;13.63;6.75;;;20.70;99.90;;;;;;7390243;19;20172;-76
2023/07/03 04:16:23;;;;;;;12.57;6.72;;;20.70;99.90;;;;;;7389869;19;20143;-77
2023/07/03 04:18:49;;;;;;;12.40;6.70;;;20.70;99.90;;;;;;7390767;19;20161;-77
2023/07/03 04:21:15;;;;;;;10.40;6.18;;;20.60;99.90;;;;;;7390917;19;20127;-77
2023/07/03 04:23:41;;;;;;;11.07;6.82;;;20.70;99.90;;;;;;7392054;19;20168;-76
2023/07/03 04:26:06;;;;;;;14.95;6.45;;;20.70;99.90;;;;;;7389711;19;20143;-78
2023/07/03 04:28:33;;;;;;;10.40;5.97;;;20.80;99.90;;;;;;7391304;19;20471;-77
2023/07/03 04:30:58;;;;;;;11.65;6.57;;;20.70;99.90;;;;;;7392511;19;20131;-77
2023/07/03 04:33:24;;;;;;;14.52;7.60;;;20.80;99.90;;;;;;7389723;19;20138;-77
2023/07/03 04:35:50;;;;;;;9.77;6.18;;;20.80;99.90;;;;;;7391794;19;20131;-76
2023/07/03 04:38:17;;;;;;;12.02;6.30;;;20.80;99.90;;;;;;7391070;19;20176;-77
2023/07/03 04:40:44;;;;;;;13.48;6.60;;;20.80;99.90;;;;;;7391396;19;20159;-75
2023/07/03 04:43:10;;;;;;;11.07;6.13;;;20.70;99.90;;;;;;7389311;19;20516;-76
2023/07/03 04:45:45;;;;;;;12.23;6.68;;;20.60;99.90;;;;;;7389520;19;20154;-76
2023/07/03 04:48:12;;;;;;;12.27;6.55;;;20.70;99.90;;;;;;7390744;19;20271;-76
2023/07/03 04:50:37;;;;;;;11.48;5.90;;;20.70;99.90;;;;;;7390235;19;20597;-76
2023/07/03 04:53:06;;;;;;;12.35;6.72;;;20.70;99.90;;;;;;7389847;19;20140;-77
2023/07/03 04:55:33;;;;;;;10.38;6.50;;;20.70;99.90;;;;;;7390444;19;20150;-77
2023/07/03 04:57:59;;;;;;;11.55;6.22;;;20.70;99.90;;;;;;7390327;19;20150;-76
2023/07/03 05:00:27;;;;;;;11.70;6.28;;;20.80;99.90;;;;;;7390819;19;20147;-77
2023/07/03 05:02:57;;;;;;;10.90;6.40;;;20.80;99.90;;;;;;7387279;19;20134;-77
2023/07/03 05:05:23;;;;;;;14.13;6.90;;;20.80;99.90;;;;;;7389584;19;20153;-77
2023/07/03 05:07:49;;;;;;;14.85;6.55;;;20.80;99.90;;;;;;7390467;19;20198;-76
2023/07/03 05:10:16;;;;;;;11.15;6.18;;;20.80;99.90;;;;;;7389974;19;20162;-76
2023/07/03 05:12:44;;;;;;;11.93;6.10;;;20.80;99.90;;;;;;7388667;19;20476;-76
2023/07/03 05:15:12;;;;;;;13.35;6.10;;;20.80;99.90;;;;;;7388962;19;20134;-76
2023/07/03 05:17:38;;;;;;;14.43;6.88;;;20.80;99.90;;;;;;7385284;19;20177;-77
2023/07/03 05:20:22;;;;;;;11.45;6.30;;;20.80;99.90;;;;;;7389290;19;20206;-77
2023/07/03 05:22:49;;;;;;;14.60;6.78;;;20.80;99.90;;;;;;7389497;19;20165;-77
2023/07/03 05:25:16;;;;;;;12.63;6.68;;;21.00;99.90;;;;;;7385331;19;20138;-76
2023/07/03 05:27:42;;;;;;;12.00;6.15;;;20.90;99.90;;;;;;7386240;19;20571;-76
2023/07/03 05:30:09;;;;;;;12.35;6.93;;;21.00;99.90;;;;;;7390194;19;20133;-76
2023/07/03 05:32:36;;;;;;;12.10;6.63;;;21.00;99.90;;;;;;7385445;19;20187;-76
2023/07/03 05:35:04;;;;;;;10.95;6.40;;;21.10;99.90;;;;;;7389926;19;20150;-76
2023/07/03 05:37:30;;;;;;;17.70;7.32;;;21.10;99.90;;;;;;7385586;19;20209;-76
2023/07/03 05:39:55;;;;;;;13.38;7.03;;;21.10;99.90;;;;;;7381075;19;20146;-76
2023/07/03 05:42:22;;;;;;;11.27;6.10;;;21.20;99.90;;;;;;7386123;19;20142;-75
2023/07/03 05:44:48;;;;;;;9.98;6.10;;;21.20;99.90;;;;;;7386853;19;20151;-76
2023/07/03 05:47:15;;;;;;;11.25;6.53;;;21.30;99.90;;;;;;7382533;19;20154;-75
2023/07/03 05:49:42;;;;;;;11.55;6.32;;;21.30;99.90;;;;;;7389582;19;20162;-75
2023/07/03 05:52:10;;;;;;;11.82;5.70;;;21.40;99.90;;;;;;7388299;19;20222;-75
2023/07/03 05:54:36;;;;;;;9.32;5.93;;;21.50;99.90;;;;;;7391743;19;20143;-76
2023/07/03 05:57:09;;;;;;;10.32;5.97;;;21.50;99.90;;;;;;7384558;19;20166;-75
2023/07/03 05:59:36;;;;;;;10.88;5.75;;;21.60;99.90;;;;;;7385787;19;20159;-75
2023/07/03 06:02:05;;;;;;;12.73;6.60;;;21.60;99.90;;;;;;7389782;19;20138;-75
2023/07/03 06:04:33;;;;;;;12.65;5.82;;;21.70;99.90;;;;;;7386734;19;20162;-78
2023/07/03 06:06:59;;;;;;;8.52;6.03;;;21.70;99.90;;;;;;7385562;19;20154;-77
2023/07/03 06:09:27;;;;;;;9.73;6.38;;;21.90;99.90;;;;;;7389778;19;20173;-75
2023/07/03 06:11:53;;;;;;;8.63;5.10;;;22.00;99.90;;;;;;7387180;19;20150;-75
2023/07/03 06:14:19;;;;;;;11.05;6.05;;;21.90;99.90;;;;;;7389023;19;20197;-76
2023/07/03 06:16:48;;;;;;;8.90;5.68;;;22.00;99.90;;;;;;7386077;19;20154;-76
2023/07/03 06:19:15;;;;;;;9.13;5.47;;;22.10;99.90;;;;;;7389153;19;20149;-75
2023/07/03 06:21:41;;;;;;;10.60;5.38;;;22.20;99.90;;;;;;7388639;19;20175;-74
2023/07/03 06:24:09;;;;;;;10.02;5.40;;;22.30;99.90;;;;;;7388821;19;20143;-76
2023/07/03 06:26:38;;;;;;;12.05;5.68;;;22.70;99.90;;;;;;7387499;19;20246;-74
2023/07/03 06:29:08;;;;;;;11.32;6.38;;;23.20;99.90;;;;;;7386219;19;20614;-74
2023/07/03 06:31:35;;;;;;;9.57;5.78;;;23.80;99.90;;;;;;7387553;19;20134;-75
2023/07/03 06:34:01;;;;;;;13.73;5.93;;;25.00;98.50;;;;;;7384168;19;20134;-74
2023/07/03 06:36:27;;;;;;;9.90;5.45;;;25.60;97.70;;;;;;7388095;19;20539;-75
2023/07/03 06:38:55;;;;;;;9.65;5.20;;;25.70;97.00;;;;;;7384759;19;20223;-74
2023/07/03 06:41:22;;;;;;;10.45;5.43;;;25.00;97.20;;;;;;7387663;19;20141;-75
2023/07/03 06:43:48;;;;;;;11.85;5.82;;;24.20;98.40;;;;;;7387079;19;20461;-75
2023/07/03 06:46:15;;;;;;;8.38;5.32;;;23.60;99.20;;;;;;7384896;19;20170;-74
2023/07/03 06:48:41;;;;;;;8.13;5.18;;;23.20;99.90;;;;;;7386822;19;20602;-75
2023/07/03 06:51:09;;;;;;;11.35;5.78;;;23.00;99.90;;;;;;7386604;19;20134;-74
2023/07/03 06:53:35;;;;;;;9.20;5.28;;;22.80;99.90;;;;;;7381364;19;20157;-74
2023/07/03 06:56:02;;;;;;;9.80;5.53;;;22.50;99.90;;;;;;7386640;19;20126;-75
2023/07/03 06:58:29;;;;;;;10.00;5.32;;;22.40;99.90;;;;;;7386030;19;20470;-74
2023/07/03 07:00:56;;;;;;;11.25;5.45;;;22.30;99.90;;;;;;7386803;19;20157;-74
2023/07/03 07:03:21;;;;;;;12.05;5.55;;;22.30;99.90;;;;;;7386554;19;20130;-74
2023/07/03 07:05:47;;;;;;;12.45;5.93;;;22.20;99.90;;;;;;7385607;19;20206;-74
2023/07/03 07:08:16;;;;;;;9.18;5.03;;;22.10;99.90;;;;;;7382575;19;20150;-74
2023/07/03 07:10:43;;;;;;;11.52;5.60;;;22.00;99.90;;;;;;7387609;19;20471;-74
2023/07/03 07:13:10;;;;;;;12.65;5.45;;;21.90;99.90;;;;;;7382948;19;20155;-73
2023/07/03 07:15:37;;;;;;;11.18;6.05;;;22.00;99.90;;;;;;7385947;19;20142;-75
2023/07/03 07:18:04;;;;;;;9.45;5.50;;;22.10;99.90;;;;;;7386362;19;20141;-74
2023/07/03 07:20:39;;;;;;;13.60;6.43;;;22.30;99.90;;;;;;7387237;19;20131;-74
2023/07/03 07:23:06;;;;;;;13.95;6.00;;;22.30;99.90;;;;;;7385735;19;20156;-78
2023/07/03 07:25:33;;;;;;;10.35;5.18;;;22.20;99.90;;;;;;7381888;19;20166;-76
2023/07/03 07:27:59;;;;;;;16.20;7.65;;;22.20;99.90;;;;;;7386236;19;20137;-77
2023/07/03 07:30:25;;;;;;;14.70;6.25;;;22.20;99.90;;;;;;7382922;19;20134;-77
2023/07/03 07:32:52;;;;;;;9.55;5.32;;;22.20;99.90;;;;;;7383101;19;20278;-75
2023/07/03 07:35:18;;;;;;;17.25;8.93;;;22.00;99.90;;;;;;7384558;19;20134;-74
2023/07/03 07:37:44;;;;;;;10.30;5.35;;;21.90;99.90;;;;;;7384917;19;20650;-74
2023/07/03 07:40:10;;;;;;;13.10;6.68;;;22.00;99.90;;;;;;7383729;19;20249;-78
2023/07/03 07:42:37;;;;;;;13.30;6.25;;;21.90;99.90;;;;;;7384328;19;20150;-76
2023/07/03 07:45:03;;;;;;;15.07;8.90;;;21.90;99.90;;;;;;7382801;19;20150;-75
2023/07/03 07:47:29;;;;;;;12.57;5.30;;;21.80;99.90;;;;;;7379632;19;20158;-74
2023/07/03 07:49:55;;;;;;;10.05;6.07;;;21.70;99.90;;;;;;7381054;19;20143;-74
2023/07/03 07:52:23;;;;;;;12.88;6.03;;;21.70;99.90;;;;;;7380844;19;20222;-77
2023/07/03 07:54:54;;;;;;;18.63;8.25;;;21.80;99.90;;;;;;7382827;19;20482;-76
2023/07/03 07:57:20;;;;;;;17.95;11.88;;;21.80;99.90;;;;;;7379697;19;20139;-77
2023/07/03 07:59:45;;;;;;;13.38;7.38;;;21.80;99.90;;;;;;7381651;19;20146;-75
2023/07/03 08:02:11;;;;;;;13.18;6.15;;;21.70;99.90;;;;;;7381567;19;20134;-76
2023/07/03 08:04:37;;;;;;;14.32;6.10;;;21.90;99.90;;;;;;7381479;19;20142;-75
2023/07/03 08:07:02;;;;;;;10.15;5.72;;;22.00;99.90;;;;;;7380750;19;20166;-75
2023/07/03 08:09:28;;;;;;;12.75;5.55;;;22.10;99.90;;;;;;7381803;19;20173;-75
2023/07/03 08:11:54;;;;;;;12.20;5.65;;;22.00;99.90;;;;;;7381304;19;20149;-75
2023/07/03 08:14:19;;;;;;;11.15;5.80;;;22.00;99.90;;;;;;7384110;19;20217;-75
2023/07/03 08:16:45;;;;;;;9.57;5.57;;;22.20;99.90;;;;;;7381497;19;20153;-76
2023/07/03 08:19:11;;;;;;;11.13;6.55;;;22.20;99.90;;;;;;7381040;19;20475;-77
2023/07/03 08:21:37;;;;;;;13.52;5.93;;;22.30;99.90;;;;;;7380046;19;20587;-77
2023/07/03 08:24:03;;;;;;;12.43;6.07;;;22.30;99.90;;;;;;7380468;19;20169;-76
2023/07/03 08:26:30;;;;;;;12.20;5.95;;;22.20;99.90;;;;;;7378024;19;20145;-76
2023/07/03 08:28:55;;;;;;;13.27;6.28;;;22.00;99.90;;;;;;7380792;19;20160;-78
2023/07/03 08:31:21;;;;;;;10.30;5.28;;;21.90;99.90;;;;;;7377688;19;20130;-77
2023/07/03 08:33:47;;;;;;;13.90;5.78;;;21.90;99.90;;;;;;7378477;19;20142;-77
2023/07/03 08:36:12;;;;;;;12.55;5.78;;;21.80;99.90;;;;;;7382107;19;20159;-76
2023/07/03 08:38:38;;;;;;;11.35;5.93;;;21.90;99.90;;;;;;7388260;19;20159;-76
2023/07/03 08:41:04;;;;;;;11.93;5.65;;;22.30;99.90;;;;;;7385432;19;20149;-76
2023/07/03 08:43:40;;;;;;;13.13;6.03;;;22.80;99.90;;;;;;7388539;19;20127;-75
2023/07/03 08:46:11;;;;;;;13.50;6.57;;;22.70;99.90;;;;;;7385913;19;20245;-76
2023/07/03 08:48:38;;;;;;;13.07;5.95;;;22.40;99.90;;;;;;7387183;19;20468;-77
2023/07/03 08:51:09;;;;;;;10.75;5.95;;;22.20;99.90;;;;;;7389592;19;20540;-78
2023/07/03 08:53:38;;;;;;;10.07;5.53;;;22.40;99.90;;;;;;7386720;19;20147;-76
2023/07/03 08:56:27;;;;;;;13.38;5.80;;;23.00;99.90;;;;;;7387394;19;20135;-77
2023/07/03 08:58:55;;;;;;;12.07;5.45;;;23.50;99.90;;;;;;7389571;19;20444;-77
2023/07/03 09:01:38;;;;;;;9.30;5.35;;;23.30;99.90;;;;;;7393403;19;20619;-78
2023/07/03 09:04:28;;;;;;;12.45;5.40;;;22.80;99.90;;;;;;7384409;19;20190;-77
2023/07/03 09:06:58;;;;;;;11.93;5.63;;;22.40;99.90;;;;;;7385836;19;20134;-77
2023/07/03 09:09:29;;;;;;;10.18;5.55;;;22.20;99.90;;;;;;7387162;19;20254;-76
2023/07/03 09:12:04;;;;;;;11.75;5.43;;;22.10;99.90;;;;;;7385966;19;21434;-78
2023/07/03 09:14:42;;;;;;;9.40;6.00;;;22.00;99.90;;;;;;7382874;19;20137;-80
2023/07/03 09:17:09;;;;;;;14.52;8.70;;;22.20;99.90;;;;;;7382772;19;20475;-76
2023/07/03 09:19:37;;;;;;;14.30;6.85;;;22.40;99.90;;;;;;7385724;19;20134;-79
2023/07/03 09:22:06;;;;;;;14.57;5.65;;;22.70;99.90;;;;;;7385588;19;20135;-80
2023/07/03 09:24:42;;;;;;;13.07;6.30;;;23.20;99.90;;;;;;7388367;19;20556;-78
2023/07/03 09:27:14;;;;;;;10.43;5.47;;;23.80;99.90;;;;;;7384998;19;20157;-78
2023/07/03 09:29:42;;;;;;;11.05;5.47;;;23.70;99.90;;;;;;7389230;19;20612;-77
2023/07/03 09:32:11;;;;;;;10.15;5.40;;;23.40;99.90;;;;;;7387721;19;20146;-78
2023/07/03 09:35:15;;;;;;;10.70;5.15;;;23.50;99.90;;;;;;7388538;19;20160;-80
2023/07/03 09:37:50;;;;;;;11.63;6.60;;;23.70;99.90;;;;;;7386238;19;20408;-77
2023/07/03 09:40:24;;;;;;;13.68;6.82;;;24.00;99.90;;;;;;7388158;19;20160;-79
2023/07/03 09:42:49;;;;;;;9.27;4.90;;;24.40;99.90;;;;;;7386923;19;20591;-78
2023/07/03 09:45:21;;;;;;;9.82;5.30;;;24.50;99.30;;;;;;7387851;19;20151;-77
2023/07/03 09:48:26;;;;;;;11.82;5.00;;;24.40;99.30;;;;;;7384355;19;20186;-79
2023/07/03 09:50:52;;;;;;;11.73;5.00;;;24.60;98.50;;;;;;7389078;19;20646;-80
2023/07/03 09:53:22;;;;;;;10.00;4.80;;;24.80;97.60;;;;;;7386971;19;20142;-78
2023/07/03 09:56:15;;;;;;;10.25;6.32;;;24.90;96.80;;;;;;7384427;19;20380;-77
2023/07/03 09:58:47;;;;;;;10.40;4.80;;;24.90;96.80;;;;;;7381846;19;20408;-76
2023/07/03 10:01:23;;;;;;;11.75;6.22;;;24.70;96.70;;;;;;7386468;19;20179;-77
2023/07/03 10:04:04;;;;;;;11.00;6.78;;;24.60;97.00;;;;;;7387679;19;20131;-76
2023/07/03 10:06:30;;;;;;;11.07;5.45;;;24.60;96.60;;;;;;7386329;19;20158;-77
2023/07/03 10:09:02;;;;;;;12.77;6.85;;;24.40;96.30;;;;;;7389319;19;20135;-77
2023/07/03 10:11:40;;;;;;;8.25;3.97;;;24.50;96.40;;;;;;7385058;19;20131;-79
2023/07/03 10:14:12;;;;;;;7.75;4.20;;;24.50;95.60;;;;;;7388340;19;20118;-79
2023/07/03 10:16:41;;;;;;;8.40;4.38;;;24.40;94.90;;;;;;7388503;19;20127;-77
2023/07/03 10:19:09;;;;;;;9.35;4.50;;;24.30;94.80;;;;;;7390443;19;20617;-77
2023/07/03 10:21:36;;;;;;;8.30;3.97;;;24.30;94.90;;;;;;7386364;19;20195;-79
2023/07/03 10:24:02;;;;;;;16.35;7.95;;;24.50;95.20;;;;;;7388087;19;20180;-79
2023/07/03 10:26:42;;;;;;;8.25;4.53;;;24.80;94.60;;;;;;7385775;19;20130;-78
2023/07/03 10:29:19;;;;;;;8.00;4.00;;;24.90;94.10;;;;;;7384147;19;20477;-78
2023/07/03 10:31:53;;;;;;;7.25;3.58;;;24.60;93.90;;;;;;7386463;19;20149;-78
2023/07/03 10:34:42;;;;;;;7.13;3.47;;;24.20;93.70;;;;;;7385773;19;20138;-75
2023/07/03 10:37:11;;;;;;;6.38;3.67;;;24.10;94.30;;;;;;7383538;19;20508;-75
2023/07/03 10:39:41;;;;;;;7.43;4.22;;;24.10;94.70;;;;;;7383783;19;20142;-76
2023/07/03 10:42:20;;;;;;;7.60;3.30;;;24.50;94.20;;;;;;7382212;19;20260;-79
2023/07/03 10:44:49;;;;;;;4.95;3.25;;;24.80;94.00;;;;;;7384035;19;20130;-77
2023/07/03 10:47:52;;;;;;;6.93;2.97;;;25.10;92.70;;;;;;7384387;19;20147;-78
2023/07/03 10:50:26;;;;;;;6.18;2.83;;;25.10;91.80;;;;;;7389723;19;20146;-78
2023/07/03 10:53:03;;;;;;;6.15;2.70;;;25.20;91.50;;;;;;7384059;19;20683;-78
2023/07/03 10:55:49;;;;;;;4.90;3.22;;;25.10;91.70;;;;;;7383618;19;20138;-79
2023/07/03 10:58:37;;;;;;;6.40;2.55;;;25.10;91.90;;;;;;7387148;19;20141;-80
2023/07/03 11:01:32;;;;;;;7.22;2.88;;;25.00;91.70;;;;;;7386535;19;20575;-79
2023/07/03 11:04:19;;;;;;;7.20;2.97;;;25.00;92.20;;;;;;7388533;19;20181;-79
2023/07/03 11:07:04;;;;;;;5.00;3.00;;;25.00;92.30;;;;;;7384727;19;20143;-81
2023/07/03 11:09:55;;;;;;;4.90;2.53;;;25.10;92.60;;;;;;7386578;19;20160;-80
2023/07/03 11:12:58;;;;;;;5.47;2.55;;;25.10;92.40;;;;;;7382081;19;20634;-78
2023/07/03 11:15:43;;;;;;;5.80;3.25;;;24.90;92.80;;;;;;7384658;19;20134;-80
2023/07/03 11:18:15;;;;;;;5.97;3.25;;;24.90;92.40;;;;;;7384708;19;20234;-79
2023/07/03 11:20:50;;;;;;;6.18;2.80;;;24.90;92.10;;;;;;7384038;19;20156;-78
2023/07/03 11:23:25;;;;;;;5.57;2.92;;;24.90;92.50;;;;;;7387438;19;20137;-77
2023/07/03 11:26:04;;;;;;;6.75;2.70;;;24.90;92.60;;;;;;7387927;19;20198;-78
2023/07/03 11:28:35;;;;;;;7.07;2.90;;;24.80;92.70;;;;;;7384477;19;20466;-78
2023/07/03 11:31:04;;;;;;;11.90;5.07;;;24.80;92.60;;;;;;7386749;19;20487;-76
2023/07/03 11:33:35;;;;;;;6.03;3.50;;;24.90;92.50;;;;;;7381843;19;20593;-76
2023/07/03 11:36:02;;;;;;;4.93;3.30;;;25.00;92.40;;;;;;7384044;19;20150;-76
2023/07/03 11:38:28;;;;;;;5.80;3.15;;;25.30;91.80;;;;;;7384824;19;20138;-77
2023/07/03 11:40:54;;;;;;;5.30;2.90;;;25.20;91.50;;;;;;7386938;19;20621;-77
2023/07/03 11:43:28;;;;;;;10.18;4.38;;;25.10;91.70;;;;;;7383701;19;20122;-76
2023/07/03 11:45:57;;;;;;;6.05;3.58;;;25.00;92.40;;;;;;7385299;19;20622;-78
2023/07/03 11:48:30;;;;;;;6.10;3.33;;;25.10;92.20;;;;;;7386357;19;20206;-78
2023/07/03 11:51:07;;;;;;;6.68;3.40;;;25.00;91.90;;;;;;7383097;19;20138;-77
2023/07/03 11:53:36;;;;;;;7.78;3.83;;;25.10;91.90;;;;;;7384055;19;20578;-77
2023/07/03 11:56:04;;;;;;;8.70;3.78;;;25.00;93.10;;;;;;7386118;19;20111;-78
2023/07/03 11:58:33;;;;;;;8.00;3.33;;;25.00;92.90;;;;;;7383280;19;20135;-77
2023/07/03 12:01:20;;;;;;;8.90;3.47;;;24.80;93.90;;;;;;7385897;19;20130;-78
2023/07/03 12:04:02;;;;;;;10.82;3.88;;;24.80;94.70;;;;;;7385793;19;20142;-77
2023/07/03 12:06:40;;;;;;;10.07;3.75;;;24.60;95.20;;;;;;7383237;19;20145;-77
2023/07/03 12:09:20;;;;;;;8.95;3.70;;;24.50;96.10;;;;;;7384855;19;20122;-79
2023/07/03 12:11:59;;;;;;;7.57;3.33;;;24.60;95.90;;;;;;7386217;19;20134;-74
2023/07/03 12:14:40;;;;;;;9.93;3.50;;;24.40;96.20;;;;;;7390451;19;20496;-73
2023/07/03 12:17:20;;;;;;;6.78;3.47;;;24.20;96.40;;;;;;7388269;19;20790;-76
2023/07/03 12:19:47;;;;;;;6.70;3.60;;;24.60;96.30;;;;;;7389265;19;20134;-77
2023/07/03 12:22:20;;;;;;;10.10;3.95;;;24.80;96.00;;;;;;7391832;19;20135;-77
2023/07/03 12:24:45;;;;;;;5.10;3.10;;;24.70;95.80;;;;;;7390170;19;20206;-75
2023/07/03 12:27:14;;;;;;;5.22;2.88;;;24.60;96.10;;;;;;7390353;19;20568;-76
2023/07/03 12:29:47;;;;;;;5.72;3.25;;;24.50;96.10;;;;;;7391493;19;20142;-75
2023/07/03 12:32:26;;;;;;;5.63;2.42;;;24.40;96.30;;;;;;7389215;19;20146;-76
2023/07/03 12:34:52;;;;;;;6.82;3.30;;;24.60;96.40;;;;;;7388810;19;20156;-76
2023/07/03 12:37:21;;;;;;;5.95;3.17;;;24.60;96.20;;;;;;7388186;19;20142;-74
2023/07/03 12:39:48;;;;;;;8.15;3.25;;;24.80;96.50;;;;;;7391231;19;20161;-77
2023/07/03 12:42:22;;;;;;;5.53;3.10;;;25.00;95.90;;;;;;7390066;19;20583;-75
2023/07/03 12:44:49;;;;;;;4.45;2.88;;;25.10;95.50;;;;;;7389582;19;20143;-76
2023/07/03 12:47:17;;;;;;;6.65;3.00;;;25.00;94.90;;;;;;7386284;19;20607;-77
2023/07/03 12:50:02;;;;;;;7.13;2.67;;;24.90;95.10;;;;;;7389872;19;20142;-76